Aalderdijk — A8VB7 — position and weather

sailwx.info

Track history (hours):
 
Tides and Currents Weather Stations Pressure Air Temp Water Temp Dewpoint Dewpoint Depression Visibility Wind Speed Wind Dir Waves Ship Positions

Aalderdijk

Last reported at 2018-Jan-24 04:00 UTC. Time now 2018-Jan-24 04:01 UTC.
Position N 37°56' W 008°51'.

Length 168 m; draft 11.4 m.

Type: Ship (hazmat cat A). MMSI: 636014588.

Date/timePositionNaut miles runAvg speedWind from/ knotsBaromVisibWave heightAir tempDewpointWater temp
2018-Jan-24 04:00N 37°56' W 008°51'0 0.0
2018-Jan-24 03:30N 37°56' W 008°51'0 0.0
2018-Jan-24 02:57N 37°56' W 008°51'0 0.0
2018-Jan-24 02:30N 37°56' W 008°51'0 0.0
2018-Jan-24 02:00N 37°56' W 008°51'0 0.0
2018-Jan-24 01:30N 37°56' W 008°51'0 0.0
2018-Jan-24 01:00N 37°56' W 008°51'0 0.0
2018-Jan-24 00:30N 37°56' W 008°51'0 0.0
2018-Jan-24 00:00N 37°56' W 008°51'0 0.0
2018-Jan-23 23:30N 37°56' W 008°51'0 0.0
2018-Jan-23 23:00N 37°56' W 008°51'0 0.0
2018-Jan-23 22:30N 37°56' W 008°51'0 0.0
2018-Jan-23 22:00N 37°56' W 008°51'0 0.0
2018-Jan-23 21:30N 37°56' W 008°51'0 0.0
2018-Jan-23 21:00N 37°56' W 008°51'0 0.0
2018-Jan-23 20:30N 37°56' W 008°51'0 0.0
2018-Jan-23 20:00N 37°56' W 008°51'0 0.0
2018-Jan-23 19:31N 37°56' W 008°51'1 2.0
2018-Jan-23 19:01N 37°55' W 008°51'713.7
2018-Jan-23 18:30N 37°59' W 008°58'816.6
2018-Jan-23 18:00N 38°04' W 009°06'816.7
2018-Jan-23 17:30N 38°11' W 009°12'816.9
2018-Jan-23 17:00N 38°17' W 009°19'916.9
2018-Jan-23 16:30N 38°24' W 009°26'817.1
2018-Jan-23 16:00N 38°30' W 009°33'817.0
2018-Jan-23 15:31N 38°37' W 009°40'815.8
2018-Jan-23 15:00N 38°44' W 009°43'816.7
2018-Jan-23 14:30N 38°53' W 009°44'917.0
2018-Jan-23 14:00N 39°01' W 009°44'917.1
2018-Jan-23 13:30N 39°10' W 009°44'816.9
2018-Jan-23 13:00N 39°18' W 009°45'917.1
2018-Jan-23 12:29N 39°27' W 009°45'1017.0
2018-Jan-23 11:54N 39°37' W 009°43'817.2
2018-Jan-23 11:25N 39°45' W 009°41'292 7.1
2018-Jan-21 18:32N 43°42' W 005°53'016.0
2018-Jan-21 18:30N 43°42' W 005°53'815.6
2018-Jan-21 17:59N 43°38' W 005°43'5 9.6
2018-Jan-21 17:29N 43°34' W 005°41'0 0.5
2018-Jan-21 16:52N 43°33' W 005°41'0 0.0
2018-Jan-21 16:22N 43°33' W 005°41'0 0.0
2018-Jan-21 15:58N 43°33' W 005°41'0 0.0
2018-Jan-21 15:28N 43°33' W 005°41'0 0.0
2018-Jan-21 14:46N 43°33' W 005°41'0 0.0
2018-Jan-21 14:28N 43°33' W 005°41'0 0.0
2018-Jan-21 13:58N 43°33' W 005°41'0 0.0
2018-Jan-21 13:22N 43°33' W 005°41'0 0.0
2018-Jan-21 12:52N 43°33' W 005°41'0 0.0
2018-Jan-21 12:28N 43°33' W 005°41'0 0.0
2018-Jan-21 11:46N 43°33' W 005°41'0 0.0
2018-Jan-21 11:28N 43°33' W 005°41'0 0.0
2018-Jan-21 10:52N 43°33' W 005°41'0 0.0
2018-Jan-21 10:28N 43°33' W 005°41'0 0.0
2018-Jan-21 09:58N 43°33' W 005°41'0 0.0
2018-Jan-21 09:28N 43°33' W 005°41'0 0.0
2018-Jan-21 08:58N 43°33' W 005°41'0 0.0
2018-Jan-21 08:28N 43°33' W 005°41'0 0.0
2018-Jan-21 07:58N 43°33' W 005°41'0 0.0
2018-Jan-21 07:28N 43°33' W 005°41'0 0.0
2018-Jan-21 06:58N 43°33' W 005°41'0 0.0
2018-Jan-21 06:28N 43°33' W 005°41'0 0.0
2018-Jan-21 06:00N 43°33' W 005°41'1 1.1
2018-Jan-21 05:30N 43°34' W 005°41'4 7.6
2018-Jan-21 05:00N 43°35' W 005°36'5 9.1
2018-Jan-21 04:30N 43°35' W 005°30'5 9.0
2018-Jan-21 04:00N 43°35' W 005°23'4 8.7
2018-Jan-21 03:30N 43°35' W 005°17'4 8.5
2018-Jan-21 03:00N 43°35' W 005°12'5 9.1
2018-Jan-21 02:29N 43°35' W 005°05'4 9.0
2018-Jan-21 02:00N 43°35' W 004°59'5 9.1
2018-Jan-21 01:30N 43°35' W 004°53'39 8.9
2018-Jan-20 21:04N 43°35' W 003°58'1 8.6
2018-Jan-20 20:57N 43°35' W 003°57'4 8.4
2018-Jan-20 20:30N 43°35' W 003°52'4 8.7
2018-Jan-20 20:00N 43°35' W 003°46'4 8.0
2018-Jan-20 19:30N 43°35' W 003°40'4 8.0
2018-Jan-20 19:01N 43°35' W 003°35'4 8.2
2018-Jan-20 18:31N 43°34' W 003°29'4 7.9
2018-Jan-20 18:00N 43°33' W 003°24'4 8.0
2018-Jan-20 17:31N 43°31' W 003°19'4 8.1
2018-Jan-20 17:01N 43°29' W 003°14'4 8.9
2018-Jan-20 16:31N 43°27' W 003°10'4 8.7
2018-Jan-20 16:00N 43°23' W 003°05'3 6.3
2018-Jan-20 15:29N 43°21' W 003°03'0 0.0
2018-Jan-20 14:59N 43°21' W 003°03'0 0.0
2018-Jan-20 14:29N 43°21' W 003°03'0 0.0
2018-Jan-20 13:56N 43°21' W 003°03'0 0.0
2018-Jan-20 13:29N 43°21' W 003°03'0 0.0
2018-Jan-20 12:56N 43°21' W 003°03'0 0.0
2018-Jan-20 12:29N 43°21' W 003°03'0 0.0
2018-Jan-20 11:59N 43°21' W 003°03'0 0.0
2018-Jan-20 11:29N 43°21' W 003°03'0 0.0
2018-Jan-20 10:59N 43°21' W 003°03'0 0.0
2018-Jan-20 10:29N 43°21' W 003°03'0 0.0
2018-Jan-20 09:56N 43°21' W 003°03'0 0.0
2018-Jan-20 09:29N 43°21' W 003°03'0 0.0
2018-Jan-20 08:59N 43°21' W 003°03'0 0.0
2018-Jan-20 08:29N 43°21' W 003°03'0 0.0
2018-Jan-20 07:59N 43°21' W 003°03'0 0.0
2018-Jan-20 07:29N 43°21' W 003°03'0 0.0
2018-Jan-20 06:58N 43°21' W 003°03'0 0.0
2018-Jan-20 06:28N 43°21' W 003°03'0 0.0
2018-Jan-20 05:58N 43°21' W 003°03'0 0.0
2018-Jan-20 05:28N 43°21' W 003°03'0 0.0
2018-Jan-20 04:55N 43°21' W 003°03'0 0.0
2018-Jan-20 04:28N 43°21' W 003°03'0 0.0
2018-Jan-20 03:58N 43°21' W 003°03'0 0.0
2018-Jan-20 03:22N 43°21' W 003°03'0 0.0
2018-Jan-20 02:55N 43°21' W 003°03'0 0.0
2018-Jan-20 02:28N 43°21' W 003°03'0 0.0
2018-Jan-20 01:58N 43°21' W 003°03'0 0.0
2018-Jan-20 01:28N 43°21' W 003°03'0 0.0
2018-Jan-20 00:58N 43°21' W 003°03'0 0.0
2018-Jan-20 00:28N 43°21' W 003°03'0 0.0
2018-Jan-19 23:58N 43°21' W 003°03'0 0.0
2018-Jan-19 23:28N 43°21' W 003°03'0 0.0
2018-Jan-19 22:58N 43°21' W 003°03'0 0.0
2018-Jan-19 22:28N 43°21' W 003°03'0 0.0
2018-Jan-19 21:58N 43°21' W 003°03'0 0.0
2018-Jan-19 21:28N 43°21' W 003°03'0 0.0
2018-Jan-19 20:58N 43°21' W 003°03'0 0.0
2018-Jan-19 20:28N 43°21' W 003°03'0 0.0
2018-Jan-19 19:58N 43°21' W 003°03'0 0.0
2018-Jan-19 19:28N 43°21' W 003°03'0 0.0
2018-Jan-19 18:58N 43°21' W 003°03'0 0.0
2018-Jan-19 18:28N 43°21' W 003°03'0 0.0
2018-Jan-19 17:55N 43°21' W 003°03'0 0.0
2018-Jan-19 17:28N 43°21' W 003°03'0 0.0
2018-Jan-19 16:58N 43°21' W 003°03'0 0.0
2018-Jan-19 16:28N 43°21' W 003°03'0 0.0
2018-Jan-19 15:58N 43°21' W 003°03'0 0.0
2018-Jan-19 15:22N 43°21' W 003°03'0 0.0
2018-Jan-19 14:55N 43°21' W 003°03'0 0.0
2018-Jan-19 14:28N 43°21' W 003°03'0 0.0
2018-Jan-19 13:58N 43°21' W 003°03'0 0.0
2018-Jan-19 13:28N 43°21' W 003°03'0 0.0
2018-Jan-19 12:58N 43°21' W 003°03'0 0.0
2018-Jan-19 12:28N 43°21' W 003°03'0 0.4
2018-Jan-19 12:00N 43°21' W 003°03'3 6.5
2018-Jan-19 11:30N 43°24' W 003°05'0 0.7
2018-Jan-19 11:00N 43°24' W 003°05'815.7
2018-Jan-19 10:30N 43°29' W 003°13'917.5
2018-Jan-19 10:00N 43°33' W 003°24'917.3
2018-Jan-19 09:30N 43°34' W 003°36'917.3
2018-Jan-19 09:00N 43°35' W 003°47'917.4
2018-Jan-19 08:30N 43°36' W 003°59'4017.2
2018-Jan-19 06:11N 43°40' W 004°54'317.1
2018-Jan-19 06:00N 43°41' W 004°58'917.5
2018-Jan-19 05:28N 43°42' W 005°11'817.0
2018-Jan-19 05:00N 43°43' W 005°22'917.1
2018-Jan-19 04:30N 43°44' W 005°34'917.3
2018-Jan-19 04:00N 43°45' W 005°46'917.1
2018-Jan-19 03:30N 43°45' W 005°57'917.1
2018-Jan-19 03:00N 43°46' W 006°09'  
Track history (hours):
 
Tides and Currents Weather Stations Pressure Air Temp Water Temp Dewpoint Dewpoint Depression Visibility Wind Speed Wind Dir Waves Ship Positions

Aalderdijk

Last reported at 2018-Jan-24 04:00 UTC. Time now 2018-Jan-24 04:01 UTC.
Position N 37°56' W 008°51'.

Length 168 m; draft 11.4 m.

Type: Ship (hazmat cat A). MMSI: 636014588.

Date/timePositionNaut miles runAvg speedWind from/ knotsBaromVisibWave heightAir tempDewpointWater temp
2018-Jan-24 04:00N 37°56' W 008°51'0 0.0
2018-Jan-24 03:30N 37°56' W 008°51'0 0.0
2018-Jan-24 02:57N 37°56' W 008°51'0 0.0
2018-Jan-24 02:30N 37°56' W 008°51'0 0.0
2018-Jan-24 02:00N 37°56' W 008°51'0 0.0
2018-Jan-24 01:30N 37°56' W 008°51'0 0.0
2018-Jan-24 01:00N 37°56' W 008°51'0 0.0
2018-Jan-24 00:30N 37°56' W 008°51'0 0.0
2018-Jan-24 00:00N 37°56' W 008°51'0 0.0
2018-Jan-23 23:30N 37°56' W 008°51'0 0.0
2018-Jan-23 23:00N 37°56' W 008°51'0 0.0
2018-Jan-23 22:30N 37°56' W 008°51'0 0.0
2018-Jan-23 22:00N 37°56' W 008°51'0 0.0
2018-Jan-23 21:30N 37°56' W 008°51'0 0.0
2018-Jan-23 21:00N 37°56' W 008°51'0 0.0
2018-Jan-23 20:30N 37°56' W 008°51'0 0.0
2018-Jan-23 20:00N 37°56' W 008°51'0 0.0
2018-Jan-23 19:31N 37°56' W 008°51'1 2.0
2018-Jan-23 19:01N 37°55' W 008°51'713.7
2018-Jan-23 18:30N 37°59' W 008°58'816.6
2018-Jan-23 18:00N 38°04' W 009°06'816.7
2018-Jan-23 17:30N 38°11' W 009°12'816.9
2018-Jan-23 17:00N 38°17' W 009°19'916.9
2018-Jan-23 16:30N 38°24' W 009°26'817.1
2018-Jan-23 16:00N 38°30' W 009°33'817.0
2018-Jan-23 15:31N 38°37' W 009°40'815.8
2018-Jan-23 15:00N 38°44' W 009°43'816.7
2018-Jan-23 14:30N 38°53' W 009°44'917.0
2018-Jan-23 14:00N 39°01' W 009°44'917.1
2018-Jan-23 13:30N 39°10' W 009°44'816.9
2018-Jan-23 13:00N 39°18' W 009°45'917.1
2018-Jan-23 12:29N 39°27' W 009°45'1017.0
2018-Jan-23 11:54N 39°37' W 009°43'817.2
2018-Jan-23 11:25N 39°45' W 009°41'292 7.1
2018-Jan-21 18:32N 43°42' W 005°53'016.0
2018-Jan-21 18:30N 43°42' W 005°53'815.6
2018-Jan-21 17:59N 43°38' W 005°43'5 9.6
2018-Jan-21 17:29N 43°34' W 005°41'0 0.5
2018-Jan-21 16:52N 43°33' W 005°41'0 0.0
2018-Jan-21 16:22N 43°33' W 005°41'0 0.0
2018-Jan-21 15:58N 43°33' W 005°41'0 0.0
2018-Jan-21 15:28N 43°33' W 005°41'0 0.0
2018-Jan-21 14:46N 43°33' W 005°41'0 0.0
2018-Jan-21 14:28N 43°33' W 005°41'0 0.0
2018-Jan-21 13:58N 43°33' W 005°41'0 0.0
2018-Jan-21 13:22N 43°33' W 005°41'0 0.0
2018-Jan-21 12:52N 43°33' W 005°41'0 0.0
2018-Jan-21 12:28N 43°33' W 005°41'0 0.0
2018-Jan-21 11:46N 43°33' W 005°41'0 0.0
2018-Jan-21 11:28N 43°33' W 005°41'0 0.0
2018-Jan-21 10:52N 43°33' W 005°41'0 0.0
2018-Jan-21 10:28N 43°33' W 005°41'0 0.0
2018-Jan-21 09:58N 43°33' W 005°41'0 0.0
2018-Jan-21 09:28N 43°33' W 005°41'0 0.0
2018-Jan-21 08:58N 43°33' W 005°41'0 0.0
2018-Jan-21 08:28N 43°33' W 005°41'0 0.0
2018-Jan-21 07:58N 43°33' W 005°41'0 0.0
2018-Jan-21 07:28N 43°33' W 005°41'0 0.0
2018-Jan-21 06:58N 43°33' W 005°41'0 0.0
2018-Jan-21 06:28N 43°33' W 005°41'0 0.0
2018-Jan-21 06:00N 43°33' W 005°41'1 1.1
2018-Jan-21 05:30N 43°34' W 005°41'4 7.6
2018-Jan-21 05:00N 43°35' W 005°36'5 9.1
2018-Jan-21 04:30N 43°35' W 005°30'5 9.0
2018-Jan-21 04:00N 43°35' W 005°23'4 8.7
2018-Jan-21 03:30N 43°35' W 005°17'4 8.5
2018-Jan-21 03:00N 43°35' W 005°12'5 9.1
2018-Jan-21 02:29N 43°35' W 005°05'4 9.0
2018-Jan-21 02:00N 43°35' W 004°59'5 9.1
2018-Jan-21 01:30N 43°35' W 004°53'39 8.9
2018-Jan-20 21:04N 43°35' W 003°58'1 8.6
2018-Jan-20 20:57N 43°35' W 003°57'4 8.4
2018-Jan-20 20:30N 43°35' W 003°52'4 8.7
2018-Jan-20 20:00N 43°35' W 003°46'4 8.0
2018-Jan-20 19:30N 43°35' W 003°40'4 8.0
2018-Jan-20 19:01N 43°35' W 003°35'4 8.2
2018-Jan-20 18:31N 43°34' W 003°29'4 7.9
2018-Jan-20 18:00N 43°33' W 003°24'4 8.0
2018-Jan-20 17:31N 43°31' W 003°19'4 8.1
2018-Jan-20 17:01N 43°29' W 003°14'4 8.9
2018-Jan-20 16:31N 43°27' W 003°10'4 8.7
2018-Jan-20 16:00N 43°23' W 003°05'3 6.3
2018-Jan-20 15:29N 43°21' W 003°03'0 0.0
2018-Jan-20 14:59N 43°21' W 003°03'0 0.0
2018-Jan-20 14:29N 43°21' W 003°03'0 0.0
2018-Jan-20 13:56N 43°21' W 003°03'0 0.0
2018-Jan-20 13:29N 43°21' W 003°03'0 0.0
2018-Jan-20 12:56N 43°21' W 003°03'0 0.0
2018-Jan-20 12:29N 43°21' W 003°03'0 0.0
2018-Jan-20 11:59N 43°21' W 003°03'0 0.0
2018-Jan-20 11:29N 43°21' W 003°03'0 0.0
2018-Jan-20 10:59N 43°21' W 003°03'0 0.0
2018-Jan-20 10:29N 43°21' W 003°03'0 0.0
2018-Jan-20 09:56N 43°21' W 003°03'0 0.0
2018-Jan-20 09:29N 43°21' W 003°03'0 0.0
2018-Jan-20 08:59N 43°21' W 003°03'0 0.0
2018-Jan-20 08:29N 43°21' W 003°03'0 0.0
2018-Jan-20 07:59N 43°21' W 003°03'0 0.0
2018-Jan-20 07:29N 43°21' W 003°03'0 0.0
2018-Jan-20 06:58N 43°21' W 003°03'0 0.0
2018-Jan-20 06:28N 43°21' W 003°03'0 0.0
2018-Jan-20 05:58N 43°21' W 003°03'0 0.0
2018-Jan-20 05:28N 43°21' W 003°03'0 0.0
2018-Jan-20 04:55N 43°21' W 003°03'0 0.0
2018-Jan-20 04:28N 43°21' W 003°03'0 0.0
2018-Jan-20 03:58N 43°21' W 003°03'0 0.0
2018-Jan-20 03:22N 43°21' W 003°03'0 0.0
2018-Jan-20 02:55N 43°21' W 003°03'0 0.0
2018-Jan-20 02:28N 43°21' W 003°03'0 0.0
2018-Jan-20 01:58N 43°21' W 003°03'0 0.0
2018-Jan-20 01:28N 43°21' W 003°03'0 0.0
2018-Jan-20 00:58N 43°21' W 003°03'0 0.0
2018-Jan-20 00:28N 43°21' W 003°03'0 0.0
2018-Jan-19 23:58N 43°21' W 003°03'0 0.0
2018-Jan-19 23:28N 43°21' W 003°03'0 0.0
2018-Jan-19 22:58N 43°21' W 003°03'0 0.0
2018-Jan-19 22:28N 43°21' W 003°03'0 0.0
2018-Jan-19 21:58N 43°21' W 003°03'0 0.0
2018-Jan-19 21:28N 43°21' W 003°03'0 0.0
2018-Jan-19 20:58N 43°21' W 003°03'0 0.0
2018-Jan-19 20:28N 43°21' W 003°03'0 0.0
2018-Jan-19 19:58N 43°21' W 003°03'0 0.0
2018-Jan-19 19:28N 43°21' W 003°03'0 0.0
2018-Jan-19 18:58N 43°21' W 003°03'0 0.0
2018-Jan-19 18:28N 43°21' W 003°03'0 0.0
2018-Jan-19 17:55N 43°21' W 003°03'0 0.0
2018-Jan-19 17:28N 43°21' W 003°03'0 0.0
2018-Jan-19 16:58N 43°21' W 003°03'0 0.0
2018-Jan-19 16:28N 43°21' W 003°03'0 0.0
2018-Jan-19 15:58N 43°21' W 003°03'0 0.0
2018-Jan-19 15:22N 43°21' W 003°03'0 0.0
2018-Jan-19 14:55N 43°21' W 003°03'0 0.0
2018-Jan-19 14:28N 43°21' W 003°03'0 0.0
2018-Jan-19 13:58N 43°21' W 003°03'0 0.0
2018-Jan-19 13:28N 43°21' W 003°03'0 0.0
2018-Jan-19 12:58N 43°21' W 003°03'0 0.0
2018-Jan-19 12:28N 43°21' W 003°03'0 0.4
2018-Jan-19 12:00N 43°21' W 003°03'3 6.5
2018-Jan-19 11:30N 43°24' W 003°05'0 0.7
2018-Jan-19 11:00N 43°24' W 003°05'815.7
2018-Jan-19 10:30N 43°29' W 003°13'917.5
2018-Jan-19 10:00N 43°33' W 003°24'917.3
2018-Jan-19 09:30N 43°34' W 003°36'917.3
2018-Jan-19 09:00N 43°35' W 003°47'917.4
2018-Jan-19 08:30N 43°36' W 003°59'4017.2
2018-Jan-19 06:11N 43°40' W 004°54'317.1
2018-Jan-19 06:00N 43°41' W 004°58'917.5
2018-Jan-19 05:28N 43°42' W 005°11'817.0
2018-Jan-19 05:00N 43°43' W 005°22'917.1
2018-Jan-19 04:30N 43°44' W 005°34'917.3
2018-Jan-19 04:00N 43°45' W 005°46'917.1
2018-Jan-19 03:30N 43°45' W 005°57'917.1
2018-Jan-19 03:00N 43°46' W 006°09'  

Dump ship's entire track history